createdAt,value
2018-02-14T00:00:40.582Z,1008.32
2018-02-14T00:01:40.236Z,1008.37
2018-02-14T00:02:40.209Z,1008.39
2018-02-14T00:03:40.164Z,1008.37
2018-02-14T00:04:40.140Z,1008.38
2018-02-14T00:05:40.130Z,1008.37
2018-02-14T00:06:40.081Z,1008.40
2018-02-14T00:07:40.352Z,1008.38
2018-02-14T00:08:40.028Z,1008.36
2018-02-14T00:09:40.000Z,1008.35
2018-02-14T00:10:39.978Z,1008.36
2018-02-14T00:11:39.960Z,1008.36
2018-02-14T00:12:39.965Z,1008.38
2018-02-14T00:13:39.901Z,1008.38
2018-02-14T00:14:40.159Z,1008.39
2018-02-14T00:15:39.831Z,1008.40
2018-02-14T00:16:39.810Z,1008.36
2018-02-14T00:17:39.781Z,1008.38
2018-02-14T00:18:39.808Z,1008.37
2018-02-14T00:19:39.729Z,1008.36
2018-02-14T00:20:39.692Z,1008.38
2018-02-14T00:21:39.973Z,1008.34
2018-02-14T00:22:39.639Z,1008.37
2018-02-14T00:23:39.617Z,1008.35
2018-02-14T00:24:39.716Z,1008.32
2018-02-14T00:25:39.600Z,1008.33
2018-02-14T00:26:39.590Z,1008.30
2018-02-14T00:27:39.806Z,1008.32
2018-02-14T00:28:39.465Z,1008.26
2018-02-14T00:29:39.439Z,1008.28
2018-02-14T00:30:39.546Z,1008.26
2018-02-14T00:31:39.464Z,1008.30
2018-02-14T00:32:39.385Z,1008.26
2018-02-14T00:33:39.650Z,1008.28
2018-02-14T00:34:39.305Z,1008.32
2018-02-14T00:35:39.276Z,1008.33
2018-02-14T00:36:39.305Z,1008.34
2018-02-14T00:37:39.310Z,1008.35
2018-02-14T00:38:39.187Z,1008.33
2018-02-14T00:39:39.456Z,1008.36
2018-02-14T00:40:39.178Z,1008.38
2018-02-14T00:41:39.155Z,1008.42
2018-02-14T00:42:39.155Z,1008.44
2018-02-14T00:43:39.063Z,1008.39
2018-02-14T00:44:39.040Z,1008.43
2018-02-14T00:46:39.262Z,1008.42
2018-02-14T00:48:38.907Z,1008.42
2018-02-14T00:49:38.885Z,1008.49
2018-02-14T00:50:38.846Z,1008.44
2018-02-14T00:51:38.921Z,1008.46
2018-02-14T00:52:39.097Z,1008.54
2018-02-14T00:53:38.761Z,1008.54
2018-02-14T00:54:38.734Z,1008.55
2018-02-14T00:55:38.705Z,1008.60
2018-02-14T00:56:38.679Z,1008.57
2018-02-14T00:57:38.652Z,1008.60
2018-02-14T00:58:38.923Z,1008.60
2018-02-14T00:59:38.590Z,1008.58
2018-02-14T01:00:38.569Z,1008.63
2018-02-14T01:01:38.603Z,1008.65
2018-02-14T01:02:38.507Z,1008.62
2018-02-14T01:03:38.486Z,1008.62
2018-02-14T01:04:38.451Z,1008.65
2018-02-14T01:05:38.727Z,1008.67
2018-02-14T01:06:38.405Z,1008.64
2018-02-14T01:07:38.374Z,1008.65
2018-02-14T01:08:38.335Z,1008.68
2018-02-14T01:09:38.310Z,1008.66
2018-02-14T01:10:38.285Z,1008.69
2018-02-14T01:11:38.255Z,1008.71
2018-02-14T01:12:38.524Z,1008.70
2018-02-14T01:13:38.196Z,1008.73
2018-02-14T01:14:38.193Z,1008.73
2018-02-14T01:15:38.219Z,1008.72
2018-02-14T01:16:38.213Z,1008.73
2018-02-14T01:17:38.082Z,1008.75
2018-02-14T01:18:38.057Z,1008.73
2018-02-14T01:20:38.297Z,1008.69
2018-02-14T01:21:38.078Z,1008.72
2018-02-14T01:22:37.998Z,1008.72
2018-02-14T01:24:37.908Z,1008.70
2018-02-14T01:25:37.934Z,1008.71
2018-02-14T01:26:37.895Z,1008.70
2018-02-14T01:27:38.115Z,1008.70
2018-02-14T01:28:37.821Z,1008.70
2018-02-14T01:29:37.742Z,1008.70
2018-02-14T01:30:37.713Z,1008.74
2018-02-14T01:31:37.733Z,1008.75
2018-02-14T01:32:37.664Z,1008.77
2018-02-14T01:33:37.625Z,1008.77
2018-02-14T01:34:37.897Z,1008.77
2018-02-14T01:35:37.575Z,1008.80
2018-02-14T01:37:37.534Z,1008.86
2018-02-14T01:38:37.481Z,1008.87
2018-02-14T01:39:37.463Z,1008.83
2018-02-14T01:40:37.430Z,1008.87
2018-02-14T01:41:37.701Z,1008.83
2018-02-14T01:42:37.377Z,1008.82
2018-02-14T01:43:37.342Z,1008.80
2018-02-14T01:44:37.322Z,1008.83
2018-02-14T01:45:37.285Z,1008.83
2018-02-14T01:46:37.255Z,1008.81
2018-02-14T01:47:37.278Z,1008.79
2018-02-14T01:48:37.546Z,1008.80
2018-02-14T01:49:37.265Z,1008.78
2018-02-14T01:50:37.153Z,1008.82
2018-02-14T01:51:37.142Z,1008.83
2018-02-14T01:52:37.170Z,1008.83
2018-02-14T01:53:37.106Z,1008.84
2018-02-14T01:54:37.328Z,1008.87
2018-02-14T01:55:36.997Z,1008.88
2018-02-14T01:56:37.070Z,1008.86
2018-02-14T01:57:36.951Z,1008.86
2018-02-14T01:58:36.916Z,1008.85
2018-02-14T02:00:37.156Z,1008.86
2018-02-14T02:01:36.984Z,1008.85
2018-02-14T02:02:36.804Z,1008.87
2018-02-14T02:03:36.774Z,1008.87
2018-02-14T02:04:36.950Z,1008.91
2018-02-14T02:05:36.722Z,1008.92
2018-02-14T02:06:36.986Z,1008.97
2018-02-14T02:07:36.658Z,1008.92
2018-02-14T02:08:36.636Z,1008.95
2018-02-14T02:09:36.602Z,1008.96
2018-02-14T02:10:36.581Z,1009.01
2018-02-14T02:11:36.546Z,1008.97
2018-02-14T02:12:36.813Z,1009.00
2018-02-14T02:13:36.484Z,1009.00
2018-02-14T02:14:36.460Z,1009.03
2018-02-14T02:15:36.440Z,1009.01
2018-02-14T02:16:36.429Z,1009.01
2018-02-14T02:18:36.709Z,1008.98
2018-02-14T02:19:36.309Z,1009.00
2018-02-14T02:20:36.285Z,1008.99
2018-02-14T02:21:36.252Z,1009.00
2018-02-14T02:22:36.305Z,1008.99
2018-02-14T02:23:36.195Z,1008.97
2018-02-14T02:24:36.170Z,1008.99
2018-02-14T02:25:36.437Z,1008.98
2018-02-14T02:26:36.117Z,1009.01
2018-02-14T02:27:36.078Z,1009.03
2018-02-14T02:28:36.061Z,1009.00
2018-02-14T02:29:36.021Z,1009.05
2018-02-14T02:30:35.991Z,1009.06
2018-02-14T02:31:35.963Z,1009.00
2018-02-14T02:32:36.236Z,1009.04
2018-02-14T02:33:35.914Z,1009.02
2018-02-14T02:34:35.878Z,1008.99
2018-02-14T02:35:35.867Z,1009.01
2018-02-14T02:36:35.973Z,1008.98
2018-02-14T02:37:35.790Z,1008.98
2018-02-14T02:38:35.761Z,1008.98
2018-02-14T02:39:36.040Z,1009.03
2018-02-14T02:40:35.808Z,1008.99
2018-02-14T02:41:35.679Z,1009.00
2018-02-14T02:43:35.618Z,1008.98
2018-02-14T02:44:35.604Z,1009.01
2018-02-14T02:45:35.565Z,1009.04
2018-02-14T02:46:35.830Z,1009.07
2018-02-14T02:47:35.506Z,1009.02
2018-02-14T02:48:35.475Z,1009.05
2018-02-14T02:49:35.454Z,1009.07
2018-02-14T02:50:35.424Z,1009.09
2018-02-14T02:51:35.396Z,1009.07
2018-02-14T02:52:35.417Z,1009.04
2018-02-14T02:53:35.643Z,1009.07
2018-02-14T02:54:35.308Z,1009.11
2018-02-14T02:55:35.282Z,1009.10
2018-02-14T02:56:35.255Z,1009.12
2018-02-14T02:57:35.218Z,1009.12
2018-02-14T02:58:35.189Z,1009.14
2018-02-14T02:59:35.156Z,1009.16
2018-02-14T03:00:35.429Z,1009.12
2018-02-14T03:01:35.097Z,1009.12
2018-02-14T03:02:35.131Z,1009.16
2018-02-14T03:03:35.052Z,1009.20
2018-02-14T03:04:35.010Z,1009.19
2018-02-14T03:05:34.986Z,1009.25
2018-02-14T03:06:34.955Z,1009.30
2018-02-14T03:07:35.226Z,1009.30
2018-02-14T03:08:34.950Z,1009.31
2018-02-14T03:09:34.881Z,1009.33
2018-02-14T03:10:34.850Z,1009.35
2018-02-14T03:11:34.809Z,1009.34
2018-02-14T03:12:34.838Z,1009.36
2018-02-14T03:13:35.048Z,1009.39
2018-02-14T03:14:34.720Z,1009.40
2018-02-14T03:15:34.692Z,1009.36
2018-02-14T03:16:34.670Z,1009.37
2018-02-14T03:17:34.635Z,1009.35
2018-02-14T03:18:34.613Z,1009.39
2018-02-14T03:19:34.892Z,1009.35
2018-02-14T03:20:34.545Z,1009.35
2018-02-14T03:21:34.517Z,1009.35
2018-02-14T03:22:34.836Z,1009.36
2018-02-14T03:23:34.457Z,1009.38
2018-02-14T03:24:34.433Z,1009.36
2018-02-14T03:25:34.709Z,1009.38
2018-02-14T03:26:34.379Z,1009.40
2018-02-14T03:28:34.412Z,1009.35
2018-02-14T03:30:34.257Z,1009.34
2018-02-14T03:31:34.524Z,1009.30
2018-02-14T03:32:34.196Z,1009.36
2018-02-14T03:33:34.183Z,1009.36
2018-02-14T03:34:34.187Z,1009.36
2018-02-14T03:35:34.108Z,1009.36
2018-02-14T03:37:34.140Z,1009.38
2018-02-14T03:38:34.322Z,1009.39
2018-02-14T03:39:33.996Z,1009.39
2018-02-14T03:40:34.073Z,1009.42
2018-02-14T03:41:33.966Z,1009.44
2018-02-14T03:42:33.911Z,1009.49
2018-02-14T03:43:33.875Z,1009.45
2018-02-14T03:44:33.845Z,1009.47
2018-02-14T03:45:34.117Z,1009.46
2018-02-14T03:47:33.759Z,1009.44
2018-02-14T03:48:33.730Z,1009.47
2018-02-14T03:49:33.703Z,1009.45
2018-02-14T03:50:33.671Z,1009.45
2018-02-14T03:51:33.640Z,1009.48
2018-02-14T03:52:33.915Z,1009.45
2018-02-14T03:53:33.581Z,1009.49
2018-02-14T03:54:33.559Z,1009.47
2018-02-14T03:55:33.521Z,1009.49
2018-02-14T03:56:33.596Z,1009.49
2018-02-14T03:57:33.512Z,1009.46
2018-02-14T03:58:33.537Z,1009.48
2018-02-14T03:59:33.709Z,1009.52
2018-02-14T04:00:33.387Z,1009.52
2018-02-14T04:01:33.357Z,1009.51
2018-02-14T04:02:33.318Z,1009.52
2018-02-14T04:03:33.305Z,1009.53
2018-02-14T04:04:33.261Z,1009.55
2018-02-14T04:05:33.230Z,1009.56
2018-02-14T04:06:33.500Z,1009.55
2018-02-14T04:07:33.171Z,1009.56
2018-02-14T04:08:33.159Z,1009.57
2018-02-14T04:09:33.114Z,1009.58
2018-02-14T04:10:33.083Z,1009.62
2018-02-14T04:11:33.159Z,1009.61
2018-02-14T04:12:33.031Z,1009.61
2018-02-14T04:13:33.297Z,1009.63
2018-02-14T04:14:32.977Z,1009.66
2018-02-14T04:16:32.911Z,1009.58
2018-02-14T04:17:32.887Z,1009.60
2018-02-14T04:18:32.859Z,1009.60
2018-02-14T04:19:32.822Z,1009.58
2018-02-14T04:20:33.099Z,1009.59
2018-02-14T04:21:32.765Z,1009.63
2018-02-14T04:22:32.747Z,1009.64
2018-02-14T04:23:32.769Z,1009.64
2018-02-14T04:25:32.651Z,1009.63
2018-02-14T04:26:32.672Z,1009.67
2018-02-14T04:27:32.890Z,1009.69
2018-02-14T04:28:32.585Z,1009.72
2018-02-14T04:29:32.541Z,1009.74
2018-02-14T04:30:32.517Z,1009.77
2018-02-14T04:31:32.470Z,1009.76
2018-02-14T04:32:32.444Z,1009.80
2018-02-14T04:33:32.713Z,1009.77
2018-02-14T04:34:32.380Z,1009.78
2018-02-14T04:35:32.349Z,1009.81
2018-02-14T04:36:32.329Z,1009.83
2018-02-14T04:37:32.292Z,1009.83
2018-02-14T04:38:32.261Z,1009.86
2018-02-14T04:39:32.534Z,1009.88
2018-02-14T04:40:32.213Z,1009.88
2018-02-14T04:41:32.178Z,1009.91
2018-02-14T04:42:32.166Z,1009.90
2018-02-14T04:43:32.172Z,1009.96
2018-02-14T04:44:32.087Z,1009.96
2018-02-14T04:45:32.373Z,1009.99
2018-02-14T04:46:32.029Z,1009.97
2018-02-14T04:47:32.014Z,1010.02
2018-02-14T04:48:31.976Z,1010.02
2018-02-14T04:49:31.939Z,1010.02
2018-02-14T04:50:31.910Z,1010.06
2018-02-14T04:51:32.314Z,1010.02
2018-02-14T04:52:31.848Z,1010.04
2018-02-14T04:53:31.822Z,1010.05
2018-02-14T04:54:31.788Z,1010.02
2018-02-14T04:55:31.760Z,1010.06
2018-02-14T04:56:31.733Z,1010.03
2018-02-14T04:57:32.012Z,1010.06
2018-02-14T04:58:31.673Z,1009.99
2018-02-14T04:59:31.641Z,1010.00
2018-02-14T05:00:31.623Z,1010.01
2018-02-14T05:01:31.581Z,1010.03
2018-02-14T05:02:31.607Z,1010.05
2018-02-14T05:03:31.821Z,1010.07
2018-02-14T05:04:31.494Z,1010.10
2018-02-14T05:05:31.472Z,1010.09
2018-02-14T05:06:31.440Z,1010.10
2018-02-14T05:07:31.408Z,1010.06
2018-02-14T05:08:31.386Z,1010.05
2018-02-14T05:09:31.353Z,1010.05
2018-02-14T05:10:31.629Z,1010.08
2018-02-14T05:12:31.268Z,1010.10
2018-02-14T05:14:31.207Z,1010.15
2018-02-14T05:15:31.171Z,1010.16
2018-02-14T05:17:31.440Z,1010.17
2018-02-14T05:18:31.176Z,1010.19
2018-02-14T05:19:31.051Z,1010.25
2018-02-14T05:20:31.022Z,1010.19
2018-02-14T05:21:30.987Z,1010.19
2018-02-14T05:22:31.011Z,1010.18
2018-02-14T05:23:30.950Z,1010.19
2018-02-14T05:26:31.179Z,1010.20
2018-02-14T05:27:30.823Z,1010.20
2018-02-14T05:28:30.848Z,1010.21
2018-02-14T05:29:30.761Z,1010.20
2018-02-14T05:30:30.734Z,1010.19
2018-02-14T05:31:30.721Z,1010.19
2018-02-14T05:32:30.668Z,1010.22
2018-02-14T05:33:30.941Z,1010.21
2018-02-14T05:34:30.606Z,1010.18
2018-02-14T05:35:30.584Z,1010.22
2018-02-14T05:36:30.607Z,1010.19
2018-02-14T05:37:30.518Z,1010.20
2018-02-14T05:38:30.485Z,1010.25
2018-02-14T05:39:30.455Z,1010.21
2018-02-14T05:40:30.726Z,1010.24
2018-02-14T05:41:30.400Z,1010.23
2018-02-14T05:42:30.366Z,1010.22
2018-02-14T05:43:30.339Z,1010.22
2018-02-14T05:44:30.309Z,1010.22
2018-02-14T05:45:30.279Z,1010.21
2018-02-14T05:46:30.246Z,1010.24
2018-02-14T05:47:30.520Z,1010.26
2018-02-14T05:48:30.190Z,1010.24
2018-02-14T05:49:30.170Z,1010.24
2018-02-14T05:50:30.128Z,1010.22
2018-02-14T05:51:30.099Z,1010.22
2018-02-14T05:52:30.127Z,1010.26
2018-02-14T05:53:30.363Z,1010.25
2018-02-14T05:54:30.016Z,1010.27
2018-02-14T05:55:29.991Z,1010.26
2018-02-14T05:56:30.013Z,1010.27
2018-02-14T05:57:29.926Z,1010.28
2018-02-14T05:58:29.942Z,1010.30
2018-02-14T05:59:30.167Z,1010.32
2018-02-14T06:00:29.829Z,1010.31
2018-02-14T06:01:29.809Z,1010.36
2018-02-14T06:02:29.769Z,1010.36
2018-02-14T06:03:29.746Z,1010.39
2018-02-14T06:04:29.803Z,1010.38
2018-02-14T06:05:29.979Z,1010.38
2018-02-14T06:06:29.650Z,1010.38
2018-02-14T06:07:29.628Z,1010.38
2018-02-14T06:08:29.589Z,1010.43
2018-02-14T06:09:29.644Z,1010.41
2018-02-14T06:10:29.538Z,1010.46
2018-02-14T06:11:29.816Z,1010.46
2018-02-14T06:12:29.472Z,1010.47
2018-02-14T06:13:29.446Z,1010.46
2018-02-14T06:14:29.413Z,1010.51
2018-02-14T06:15:29.382Z,1010.49
2018-02-14T06:16:29.437Z,1010.51
2018-02-14T06:17:29.623Z,1010.54
2018-02-14T06:18:29.300Z,1010.51
2018-02-14T06:19:29.268Z,1010.57
2018-02-14T06:20:29.233Z,1010.56
2018-02-14T06:22:29.234Z,1010.61
2018-02-14T06:24:29.417Z,1010.63
2018-02-14T06:25:29.087Z,1010.66
2018-02-14T06:26:29.053Z,1010.65
2018-02-14T06:27:29.024Z,1010.64
2018-02-14T06:28:29.014Z,1010.66
2018-02-14T06:29:28.968Z,1010.67
2018-02-14T06:30:28.933Z,1010.69
2018-02-14T06:31:29.211Z,1010.66
2018-02-14T06:32:29.291Z,1010.68
2018-02-14T06:33:28.873Z,1010.72
2018-02-14T06:34:28.920Z,1010.65
2018-02-14T06:35:28.921Z,1010.71
2018-02-14T06:36:28.768Z,1010.69
2018-02-14T06:37:28.882Z,1010.65
2018-02-14T06:38:29.021Z,1010.68
2018-02-14T06:39:28.679Z,1010.70
2018-02-14T06:40:28.637Z,1010.74
2018-02-14T06:41:28.608Z,1010.73
2018-02-14T06:42:28.584Z,1010.76
2018-02-14T06:43:28.547Z,1010.78
2018-02-14T06:44:28.528Z,1010.76
2018-02-14T06:45:28.799Z,1010.80
2018-02-14T06:46:28.507Z,1010.78
2018-02-14T06:47:28.483Z,1010.78
2018-02-14T06:48:28.400Z,1010.79
2018-02-14T06:49:28.372Z,1010.87
2018-02-14T06:51:28.627Z,1010.84
2018-02-14T06:52:28.331Z,1010.88
2018-02-14T06:53:28.252Z,1010.89
2018-02-14T06:54:28.236Z,1010.88
2018-02-14T06:56:28.163Z,1010.92
2018-02-14T06:57:28.334Z,1010.90
2018-02-14T06:58:28.561Z,1010.97
2018-02-14T06:59:28.309Z,1010.92
2018-02-14T07:00:28.116Z,1010.97
2018-02-14T07:01:28.017Z,1010.97
2018-02-14T07:02:28.019Z,1010.97
2018-02-14T07:03:28.100Z,1011.00
2018-02-14T07:04:27.981Z,1011.02
2018-02-14T07:05:28.201Z,1010.98
2018-02-14T07:06:27.868Z,1011.05
2018-02-14T07:07:27.890Z,1011.05
2018-02-14T07:08:27.806Z,1011.03
2018-02-14T07:09:27.780Z,1011.09
2018-02-14T07:10:27.748Z,1011.07
2018-02-14T07:11:28.021Z,1011.07
2018-02-14T07:12:33.355Z,1011.10
2018-02-14T07:13:27.831Z,1011.07
2018-02-14T07:14:28.283Z,1011.08
2018-02-14T07:15:27.857Z,1011.11
2018-02-14T07:16:27.822Z,1011.13
2018-02-14T07:17:28.850Z,1011.14
2018-02-14T07:18:27.516Z,1011.10
2018-02-14T07:19:27.487Z,1011.13
2018-02-14T07:20:27.454Z,1011.12
2018-02-14T07:21:27.477Z,1011.17
2018-02-14T07:22:27.395Z,1011.15
2018-02-14T07:23:27.684Z,1011.18
2018-02-14T07:24:27.342Z,1011.13
2018-02-14T07:25:27.311Z,1011.14
2018-02-14T07:26:27.280Z,1011.16
2018-02-14T07:27:27.256Z,1011.16
2018-02-14T07:28:27.227Z,1011.18
2018-02-14T07:29:27.492Z,1011.20
2018-02-14T07:30:27.220Z,1011.19
2018-02-14T07:31:27.195Z,1011.21
2018-02-14T07:32:27.106Z,1011.21
2018-02-14T07:33:27.078Z,1011.26
2018-02-14T07:34:27.127Z,1011.22
2018-02-14T07:35:27.327Z,1011.23
2018-02-14T07:36:26.994Z,1011.26
2018-02-14T07:38:26.937Z,1011.32
2018-02-14T07:39:26.909Z,1011.34
2018-02-14T07:40:26.903Z,1011.36
2018-02-14T07:41:27.156Z,1011.36
2018-02-14T07:42:26.827Z,1011.38
2018-02-14T07:43:26.795Z,1011.46
2018-02-14T07:44:26.769Z,1011.44
2018-02-14T07:45:26.754Z,1011.45
2018-02-14T07:46:26.713Z,1011.49
2018-02-14T07:47:26.690Z,1011.51
2018-02-14T07:48:26.959Z,1011.49
2018-02-14T07:49:26.636Z,1011.51
2018-02-14T07:50:26.611Z,1011.56
2018-02-14T07:51:26.582Z,1011.56
2018-02-14T07:52:26.560Z,1011.54
2018-02-14T07:53:26.531Z,1011.57
2018-02-14T07:54:26.501Z,1011.60
2018-02-14T07:55:26.771Z,1011.61
2018-02-14T07:56:26.449Z,1011.61
2018-02-14T07:57:26.427Z,1011.59
2018-02-14T07:58:26.392Z,1011.56
2018-02-14T07:59:26.370Z,1011.59
2018-02-14T08:00:26.344Z,1011.61
2018-02-14T08:01:26.371Z,1011.60
2018-02-14T08:02:26.603Z,1011.59
2018-02-14T08:03:26.280Z,1011.58
2018-02-14T08:04:26.257Z,1011.59
2018-02-14T08:05:26.222Z,1011.62
2018-02-14T08:06:26.199Z,1011.61
2018-02-14T08:07:26.174Z,1011.61
2018-02-14T08:08:26.149Z,1011.64
2018-02-14T08:09:26.430Z,1011.68
2018-02-14T08:10:26.201Z,1011.70
2018-02-14T08:11:26.154Z,1011.72
2018-02-14T08:12:26.060Z,1011.71
2018-02-14T08:13:26.043Z,1011.77
2018-02-14T08:14:26.028Z,1011.76
2018-02-14T08:16:26.269Z,1011.78
2018-02-14T08:17:25.945Z,1011.76
2018-02-14T08:18:25.919Z,1011.80
2018-02-14T08:19:25.897Z,1011.80
2018-02-14T08:20:25.879Z,1011.82
2018-02-14T08:21:25.903Z,1011.83
2018-02-14T08:22:25.833Z,1011.88
2018-02-14T08:23:26.111Z,1011.90
2018-02-14T08:24:25.789Z,1011.94
2018-02-14T08:25:25.766Z,1011.88
2018-02-14T08:26:25.746Z,1011.95
2018-02-14T08:27:25.783Z,1011.95
2018-02-14T08:28:25.706Z,1011.99
2018-02-14T08:29:25.985Z,1011.95
2018-02-14T08:30:25.661Z,1011.99
2018-02-14T08:31:25.642Z,1012.05
2018-02-14T08:32:25.639Z,1012.05
2018-02-14T08:33:25.607Z,1012.09
2018-02-14T08:34:25.589Z,1012.11
2018-02-14T08:35:25.862Z,1012.15
2018-02-14T08:36:25.572Z,1012.15
2018-02-14T08:37:25.532Z,1012.19
2018-02-14T08:38:25.506Z,1012.19
2018-02-14T08:39:25.487Z,1012.23
2018-02-14T08:40:25.471Z,1012.20
2018-02-14T08:41:25.748Z,1012.20
2018-02-14T08:42:25.431Z,1012.24
2018-02-14T08:43:25.413Z,1012.25
2018-02-14T08:44:25.395Z,1012.24
2018-02-14T08:45:25.380Z,1012.22
2018-02-14T08:46:25.403Z,1012.27
2018-02-14T08:47:25.652Z,1012.26
2018-02-14T08:48:25.325Z,1012.28
2018-02-14T08:49:25.309Z,1012.34
2018-02-14T08:50:25.282Z,1012.32
2018-02-14T08:51:25.267Z,1012.35
2018-02-14T08:52:25.256Z,1012.38
2018-02-14T08:53:25.531Z,1012.40
2018-02-14T08:54:25.214Z,1012.47
2018-02-14T08:55:25.199Z,1012.49
2018-02-14T08:56:25.176Z,1012.45
2018-02-14T08:57:25.171Z,1012.50
2018-02-14T08:58:25.144Z,1012.47
2018-02-14T08:59:25.426Z,1012.48
2018-02-14T09:00:25.114Z,1012.46
2018-02-14T09:01:25.141Z,1012.48
2018-02-14T09:03:25.061Z,1012.55
2018-02-14T09:04:25.055Z,1012.57
2018-02-14T09:05:25.340Z,1012.56
2018-02-14T09:06:25.033Z,1012.58
2018-02-14T09:07:25.055Z,1012.60
2018-02-14T09:08:24.991Z,1012.62
2018-02-14T09:09:24.994Z,1012.64
2018-02-14T09:10:24.961Z,1012.65
2018-02-14T09:11:24.946Z,1012.67
2018-02-14T09:12:25.221Z,1012.68
2018-02-14T09:13:24.904Z,1012.72
2018-02-14T09:14:24.894Z,1012.70
2018-02-14T09:15:24.874Z,1012.73
2018-02-14T09:16:24.862Z,1012.69
2018-02-14T09:17:24.849Z,1012.73
2018-02-14T09:18:24.843Z,1012.75
2018-02-14T09:19:25.120Z,1012.78
2018-02-14T09:20:24.809Z,1012.78
2018-02-14T09:21:24.790Z,1012.83
2018-02-14T09:22:24.774Z,1012.79
2018-02-14T09:23:24.764Z,1012.84
2018-02-14T09:24:24.752Z,1012.86
2018-02-14T09:25:24.744Z,1012.87
2018-02-14T09:26:25.024Z,1012.93
2018-02-14T09:27:24.706Z,1012.91
2018-02-14T09:28:24.701Z,1012.94
2018-02-14T09:29:24.678Z,1012.94
2018-02-14T09:30:24.673Z,1012.96
2018-02-14T09:31:24.655Z,1012.99
2018-02-14T09:32:24.637Z,1013.00
2018-02-14T09:33:24.928Z,1012.96
2018-02-14T09:34:24.617Z,1012.95
2018-02-14T09:35:24.611Z,1013.00
2018-02-14T09:36:24.636Z,1013.02
2018-02-14T09:37:24.574Z,1013.06
2018-02-14T09:38:24.585Z,1013.08
2018-02-14T09:39:24.553Z,1013.07
2018-02-14T09:40:24.967Z,1013.12
2018-02-14T09:41:24.633Z,1013.11
2018-02-14T09:42:24.652Z,1013.17
2018-02-14T09:43:24.499Z,1013.17
2018-02-14T09:44:24.489Z,1013.21
2018-02-14T09:45:24.478Z,1013.24
2018-02-14T09:46:24.467Z,1013.24
2018-02-14T09:47:24.757Z,1013.22
2018-02-14T09:48:24.435Z,1013.26
2018-02-14T09:49:24.426Z,1013.24
2018-02-14T09:50:24.462Z,1013.20
2018-02-14T09:51:24.402Z,1013.26
2018-02-14T09:52:24.405Z,1013.28
2018-02-14T09:53:24.656Z,1013.25
2018-02-14T09:54:24.684Z,1013.29
2018-02-14T09:55:24.352Z,1013.33
2018-02-14T09:56:24.345Z,1013.32
2018-02-14T09:57:24.329Z,1013.33
2018-02-14T09:58:24.319Z,1013.32
2018-02-14T09:59:24.320Z,1013.36
2018-02-14T10:00:24.597Z,1013.35
2018-02-14T10:01:24.296Z,1013.40
2018-02-14T10:02:24.284Z,1013.36
2018-02-14T10:03:24.268Z,1013.40
2018-02-14T10:04:24.253Z,1013.39
2018-02-14T10:05:24.241Z,1013.39
2018-02-14T10:06:24.630Z,1013.37
2018-02-14T10:07:24.218Z,1013.38
2018-02-14T10:08:24.211Z,1013.41
2018-02-14T10:09:24.373Z,1013.44
2018-02-14T10:10:24.205Z,1013.46
2018-02-14T10:11:24.194Z,1013.57
2018-02-14T10:12:24.483Z,1013.64
2018-02-14T10:13:24.162Z,1013.74
2018-02-14T10:14:24.139Z,1013.68
2018-02-14T10:15:24.126Z,1013.71
2018-02-14T10:16:24.165Z,1013.75
2018-02-14T10:17:24.111Z,1013.72
2018-02-14T10:18:24.096Z,1013.78
2018-02-14T10:19:24.089Z,1013.72
2018-02-14T10:20:24.077Z,1013.75
2018-02-14T10:21:24.065Z,1013.83
2018-02-14T10:22:24.096Z,1013.78
2018-02-14T10:23:24.041Z,1013.78
2018-02-14T10:24:24.331Z,1013.91
2018-02-14T10:25:24.015Z,1013.80
2018-02-14T10:26:24.009Z,1013.79
2018-02-14T10:27:24.004Z,1013.84
2018-02-14T10:28:24.023Z,1013.81
2018-02-14T10:29:23.969Z,1013.83
2018-02-14T10:30:24.271Z,1013.90
2018-02-14T10:31:23.996Z,1013.83
2018-02-14T10:32:23.947Z,1013.84
2018-02-14T10:33:23.939Z,1013.92
2018-02-14T10:34:23.945Z,1013.91
2018-02-14T10:35:23.899Z,1013.92
2018-02-14T10:36:24.189Z,1013.97
2018-02-14T10:37:23.879Z,1013.98
2018-02-14T10:38:23.868Z,1013.88
2018-02-14T10:39:23.869Z,1014.04
2018-02-14T10:40:23.841Z,1014.17
2018-02-14T10:41:23.879Z,1014.12
2018-02-14T10:42:23.827Z,1014.16
2018-02-14T10:43:24.105Z,1014.28
2018-02-14T10:44:23.792Z,1014.26
2018-02-14T10:45:23.789Z,1014.19
2018-02-14T10:46:24.138Z,1014.30
2018-02-14T10:47:23.767Z,1014.23
2018-02-14T10:48:23.747Z,1014.07
2018-02-14T10:49:23.772Z,1014.08
2018-02-14T10:50:24.022Z,1014.18
2018-02-14T10:51:23.714Z,1014.10
2018-02-14T10:52:23.709Z,1014.10
2018-02-14T10:53:23.688Z,1014.20
2018-02-14T10:54:23.682Z,1014.10
2018-02-14T10:55:23.665Z,1013.98
2018-02-14T10:56:23.708Z,1014.08
2018-02-14T10:57:23.945Z,1014.19
2018-02-14T10:58:23.639Z,1013.93
2018-02-14T10:59:23.617Z,1013.96
2018-02-14T11:00:23.607Z,1013.91
2018-02-14T11:01:23.603Z,1013.77
2018-02-14T11:02:23.590Z,1013.79
2018-02-14T11:03:23.582Z,1013.92
2018-02-14T11:04:23.868Z,1013.90
2018-02-14T11:05:23.555Z,1013.73
2018-02-14T11:06:23.541Z,1013.95
2018-02-14T11:08:23.519Z,1013.83
2018-02-14T11:09:23.508Z,1013.98
2018-02-14T11:10:23.496Z,1014.02
2018-02-14T11:11:23.782Z,1013.88
2018-02-14T11:12:23.472Z,1013.90
2018-02-14T11:13:23.461Z,1013.99
2018-02-14T11:14:23.452Z,1013.80
2018-02-14T11:15:23.436Z,1013.69
2018-02-14T11:16:23.437Z,1013.83
2018-02-14T11:17:23.606Z,1013.81
2018-02-14T11:18:23.710Z,1013.72
2018-02-14T11:19:23.409Z,1013.80
2018-02-14T11:20:23.393Z,1013.77
2018-02-14T11:21:23.373Z,1013.66
2018-02-14T11:22:23.384Z,1013.71
2018-02-14T11:23:23.348Z,1013.75
2018-02-14T11:24:23.338Z,1013.73
2018-02-14T11:25:23.626Z,1013.71
2018-02-14T11:26:23.312Z,1013.79
2018-02-14T11:27:23.308Z,1013.74
2018-02-14T11:29:23.279Z,1013.80
2018-02-14T11:30:23.262Z,1013.87
2018-02-14T11:31:23.558Z,1013.95
2018-02-14T11:32:23.240Z,1013.86
2018-02-14T11:33:23.233Z,1013.81
2018-02-14T11:34:23.223Z,1013.77
2018-02-14T11:35:23.369Z,1013.57
2018-02-14T11:36:23.200Z,1013.51
2018-02-14T11:37:23.491Z,1013.58
2018-02-14T11:38:23.171Z,1013.53
2018-02-14T11:39:23.171Z,1013.57
2018-02-14T11:40:23.197Z,1013.56
2018-02-14T11:41:23.160Z,1013.53
2018-02-14T11:42:23.129Z,1013.50
2018-02-14T11:43:23.411Z,1013.52
2018-02-14T11:44:23.101Z,1013.53
2018-02-14T11:45:23.090Z,1013.61
2018-02-14T11:46:23.223Z,1013.66
2018-02-14T11:47:23.076Z,1013.55
2018-02-14T11:48:23.052Z,1013.51
2018-02-14T11:49:23.392Z,1013.58
2018-02-14T11:50:23.035Z,1013.58
2018-02-14T11:51:23.017Z,1013.57
2018-02-14T11:52:23.217Z,1013.61
2018-02-14T11:53:23.056Z,1013.62
2018-02-14T11:54:22.986Z,1013.57
2018-02-14T11:55:23.282Z,1013.58
2018-02-14T11:56:22.961Z,1013.61
2018-02-14T11:57:22.953Z,1013.58
2018-02-14T11:58:22.941Z,1013.55
2018-02-14T11:59:22.929Z,1013.61
2018-02-14T12:00:22.919Z,1013.62
2018-02-14T12:01:23.248Z,1013.63
2018-02-14T12:02:23.047Z,1013.63
2018-02-14T12:03:22.885Z,1013.64
2018-02-14T12:04:22.877Z,1013.64
2018-02-14T12:05:22.871Z,1013.68
2018-02-14T12:06:22.854Z,1013.65
2018-02-14T12:07:22.843Z,1013.63
2018-02-14T12:09:22.827Z,1013.65
2018-02-14T12:10:22.818Z,1013.63
2018-02-14T12:11:22.797Z,1013.67
2018-02-14T12:12:22.788Z,1013.63
2018-02-14T12:13:23.079Z,1013.65
2018-02-14T12:14:22.763Z,1013.56
2018-02-14T12:15:22.759Z,1013.56
2018-02-14T12:16:22.740Z,1013.65
2018-02-14T12:17:22.734Z,1013.58
2018-02-14T12:18:22.719Z,1013.49
2018-02-14T12:19:22.723Z,1013.70
2018-02-14T12:20:23.367Z,1013.54
2018-02-14T12:23:55.877Z,1013.53
2018-02-14T12:24:22.658Z,1013.48
2018-02-14T12:25:22.823Z,1013.68
2018-02-14T12:26:22.629Z,1013.60
2018-02-14T12:27:22.975Z,1013.47
2018-02-14T12:28:27.013Z,1013.66
2018-02-14T12:29:55.835Z,1013.56
2018-02-14T12:30:22.598Z,1013.49
2018-02-14T12:31:22.609Z,1013.57
2018-02-14T12:32:23.224Z,1013.63
2018-02-14T12:33:22.552Z,1013.47
2018-02-14T12:34:22.840Z,1013.39
2018-02-14T12:35:22.540Z,1013.48
2018-02-14T12:36:22.521Z,1013.44